sensor_id;sensor_type;location;lat;lon;timestamp;pressure;altitude;pressure_sealevel;temperature;humidity
62592;BME280;48659;41.622;2.276;2023-11-21T00:00:49;99668.40;;;15.82;46.89
62592;BME280;48659;41.622;2.276;2023-11-21T00:03:17;99662.32;;;15.68;47.56
62592;BME280;48659;41.622;2.276;2023-11-21T00:05:45;99657.68;;;15.24;47.84
62592;BME280;48659;41.622;2.276;2023-11-21T00:08:13;99654.00;;;15.95;47.72
62592;BME280;48659;41.622;2.276;2023-11-21T00:10:41;99648.07;;;15.63;47.23
62592;BME280;48659;41.622;2.276;2023-11-21T00:13:09;99651.97;;;15.40;46.36
62592;BME280;48659;41.622;2.276;2023-11-21T00:15:37;99646.55;;;16.28;46.89
62592;BME280;48659;41.622;2.276;2023-11-21T00:18:04;99640.67;;;15.60;46.42
62592;BME280;48659;41.622;2.276;2023-11-21T00:20:50;99637.15;;;15.57;46.58
62592;BME280;48659;41.622;2.276;2023-11-21T00:23:18;99631.99;;;16.30;46.22
62592;BME280;48659;41.622;2.276;2023-11-21T00:25:46;99625.13;;;16.79;45.29
62592;BME280;48659;41.622;2.276;2023-11-21T00:28:14;99617.88;;;15.88;45.18
62592;BME280;48659;41.622;2.276;2023-11-21T00:30:42;99612.01;;;16.27;45.41
62592;BME280;48659;41.622;2.276;2023-11-21T00:33:10;99613.91;;;17.09;45.56
62592;BME280;48659;41.622;2.276;2023-11-21T00:35:42;99618.52;;;14.87;47.41
62592;BME280;48659;41.622;2.276;2023-11-21T00:38:09;99618.47;;;15.92;45.51
62592;BME280;48659;41.622;2.276;2023-11-21T00:40:37;99613.43;;;16.10;46.51
62592;BME280;48659;41.622;2.276;2023-11-21T00:43:05;99611.08;;;15.80;46.15
62592;BME280;48659;41.622;2.276;2023-11-21T00:45:43;99612.77;;;17.03;45.16
62592;BME280;48659;41.622;2.276;2023-11-21T00:48:11;99613.12;;;16.05;44.97
62592;BME280;48659;41.622;2.276;2023-11-21T00:50:50;99615.65;;;15.23;46.42
62592;BME280;48659;41.622;2.276;2023-11-21T00:53:18;99619.54;;;13.23;53.17
62592;BME280;48659;41.622;2.276;2023-11-21T00:55:45;99616.36;;;12.65;54.17
62592;BME280;48659;41.622;2.276;2023-11-21T00:58:13;99611.84;;;13.51;51.75
62592;BME280;48659;41.622;2.276;2023-11-21T01:00:43;99605.47;;;15.24;48.00
62592;BME280;48659;41.622;2.276;2023-11-21T01:03:11;99601.03;;;13.64;49.81
62592;BME280;48659;41.622;2.276;2023-11-21T01:05:40;99595.21;;;15.42;47.54
62592;BME280;48659;41.622;2.276;2023-11-21T01:08:07;99592.17;;;15.89;46.23
62592;BME280;48659;41.622;2.276;2023-11-21T01:10:34;99584.32;;;17.16;45.12
62592;BME280;48659;41.622;2.276;2023-11-21T01:13:03;99587.06;;;16.48;46.33
62592;BME280;48659;41.622;2.276;2023-11-21T01:15:30;99582.47;;;16.99;46.02
62592;BME280;48659;41.622;2.276;2023-11-21T01:17:57;99577.31;;;15.60;45.45
62592;BME280;48659;41.622;2.276;2023-11-21T01:20:25;99572.35;;;16.33;45.02
62592;BME280;48659;41.622;2.276;2023-11-21T01:22:52;99568.72;;;16.74;45.10
62592;BME280;48659;41.622;2.276;2023-11-21T01:25:20;99564.64;;;16.96;45.49
62592;BME280;48659;41.622;2.276;2023-11-21T01:27:47;99566.47;;;15.88;45.85
62592;BME280;48659;41.622;2.276;2023-11-21T01:30:14;99565.78;;;16.44;45.86
62592;BME280;48659;41.622;2.276;2023-11-21T01:32:42;99565.48;;;16.20;45.97
62592;BME280;48659;41.622;2.276;2023-11-21T01:35:10;99558.06;;;17.08;46.07
62592;BME280;48659;41.622;2.276;2023-11-21T01:37:38;99561.71;;;16.60;46.27
62592;BME280;48659;41.622;2.276;2023-11-21T01:40:08;99568.16;;;15.56;46.88
62592;BME280;48659;41.622;2.276;2023-11-21T01:42:40;99572.27;;;16.19;46.55
62592;BME280;48659;41.622;2.276;2023-11-21T01:45:09;99570.62;;;15.96;45.47
62592;BME280;48659;41.622;2.276;2023-11-21T01:47:42;99566.06;;;16.95;45.12
62592;BME280;48659;41.622;2.276;2023-11-21T01:50:15;99561.54;;;15.77;45.01
62592;BME280;48659;41.622;2.276;2023-11-21T01:52:45;99562.01;;;16.21;45.47
62592;BME280;48659;41.622;2.276;2023-11-21T01:55:15;99565.11;;;15.83;46.17
62592;BME280;48659;41.622;2.276;2023-11-21T01:57:45;99556.44;;;16.08;45.91
62592;BME280;48659;41.622;2.276;2023-11-21T02:00:14;99556.66;;;15.72;46.36
62592;BME280;48659;41.622;2.276;2023-11-21T02:02:43;99547.76;;;16.48;45.95
62592;BME280;48659;41.622;2.276;2023-11-21T02:05:11;99542.34;;;16.17;45.59
62592;BME280;48659;41.622;2.276;2023-11-21T02:07:42;99533.14;;;16.68;45.54
62592;BME280;48659;41.622;2.276;2023-11-21T02:10:10;99533.51;;;17.69;46.33
62592;BME280;48659;41.622;2.276;2023-11-21T02:12:41;99533.03;;;16.48;47.85
62592;BME280;48659;41.622;2.276;2023-11-21T02:15:10;99531.40;;;16.95;48.76
62592;BME280;48659;41.622;2.276;2023-11-21T02:17:39;99539.59;;;15.87;50.04
62592;BME280;48659;41.622;2.276;2023-11-21T02:20:08;99542.78;;;16.67;49.90
62592;BME280;48659;41.622;2.276;2023-11-21T02:22:41;99546.96;;;15.19;51.12
62592;BME280;48659;41.622;2.276;2023-11-21T02:25:09;99543.45;;;14.90;51.42
62592;BME280;48659;41.622;2.276;2023-11-21T02:27:41;99542.75;;;15.25;52.92
62592;BME280;48659;41.622;2.276;2023-11-21T02:30:10;99535.03;;;14.03;54.39
62592;BME280;48659;41.622;2.276;2023-11-21T02:32:42;99527.50;;;15.46;52.28
62592;BME280;48659;41.622;2.276;2023-11-21T02:35:10;99518.83;;;16.67;51.39
62592;BME280;48659;41.622;2.276;2023-11-21T02:37:37;99517.09;;;15.72;53.27
62592;BME280;48659;41.622;2.276;2023-11-21T02:40:06;99509.09;;;14.80;52.84
62592;BME280;48659;41.622;2.276;2023-11-21T02:42:41;99495.79;;;16.39;51.15
62592;BME280;48659;41.622;2.276;2023-11-21T02:45:10;99497.45;;;16.29;52.24
62592;BME280;48659;41.622;2.276;2023-11-21T02:47:42;99496.88;;;13.65;57.49
62592;BME280;48659;41.622;2.276;2023-11-21T02:50:09;99495.44;;;14.15;57.74
62592;BME280;48659;41.622;2.276;2023-11-21T02:52:42;99490.73;;;14.40;55.65
62592;BME280;48659;41.622;2.276;2023-11-21T02:55:10;99494.17;;;12.43;58.92
62592;BME280;48659;41.622;2.276;2023-11-21T02:57:41;99490.94;;;14.86;55.11
62592;BME280;48659;41.622;2.276;2023-11-21T03:00:09;99490.15;;;15.80;53.61
62592;BME280;48659;41.622;2.276;2023-11-21T03:02:41;99478.36;;;14.86;53.36
62592;BME280;48659;41.622;2.276;2023-11-21T03:05:09;99472.04;;;14.82;51.85
62592;BME280;48659;41.622;2.276;2023-11-21T03:07:42;99474.10;;;15.62;51.44
62592;BME280;48659;41.622;2.276;2023-11-21T03:10:10;99468.27;;;16.19;51.49
62592;BME280;48659;41.622;2.276;2023-11-21T03:12:37;99465.55;;;15.57;51.23
62592;BME280;48659;41.622;2.276;2023-11-21T03:15:06;99455.91;;;14.75;53.07
62592;BME280;48659;41.622;2.276;2023-11-21T03:17:42;99445.66;;;15.42;52.64
62592;BME280;48659;41.622;2.276;2023-11-21T03:20:10;99448.03;;;14.60;52.86
62592;BME280;48659;41.622;2.276;2023-11-21T03:22:37;99445.05;;;15.50;53.27
62592;BME280;48659;41.622;2.276;2023-11-21T03:25:06;99445.30;;;15.53;54.03
62592;BME280;48659;41.622;2.276;2023-11-21T03:27:41;99442.47;;;13.49;56.49
62592;BME280;48659;41.622;2.276;2023-11-21T03:30:11;99441.62;;;13.86;56.56
62592;BME280;48659;41.622;2.276;2023-11-21T03:32:41;99441.15;;;15.22;53.96
62592;BME280;48659;41.622;2.276;2023-11-21T03:35:09;99444.50;;;14.88;53.75
62592;BME280;48659;41.622;2.276;2023-11-21T03:37:41;99448.60;;;15.44;52.54
62592;BME280;48659;41.622;2.276;2023-11-21T03:40:09;99452.73;;;16.54;52.69
62592;BME280;48659;41.622;2.276;2023-11-21T03:42:38;99451.61;;;14.47;54.37
62592;BME280;48659;41.622;2.276;2023-11-21T03:45:06;99448.45;;;15.43;55.28
62592;BME280;48659;41.622;2.276;2023-11-21T03:47:34;99443.93;;;14.61;54.59
62592;BME280;48659;41.622;2.276;2023-11-21T03:50:02;99438.54;;;15.05;52.68
62592;BME280;48659;41.622;2.276;2023-11-21T03:52:30;99425.40;;;16.84;51.75
62592;BME280;48659;41.622;2.276;2023-11-21T03:54:57;99419.12;;;15.76;50.23
62592;BME280;48659;41.622;2.276;2023-11-21T03:57:25;99424.95;;;16.67;51.46
62592;BME280;48659;41.622;2.276;2023-11-21T03:59:52;99433.65;;;15.90;53.01
62592;BME280;48659;41.622;2.276;2023-11-21T04:02:20;99437.18;;;14.95;53.84
62592;BME280;48659;41.622;2.276;2023-11-21T04:04:48;99435.42;;;15.62;53.11
62592;BME280;48659;41.622;2.276;2023-11-21T04:07:20;99436.35;;;15.90;53.76
62592;BME280;48659;41.622;2.276;2023-11-21T04:09:47;99432.75;;;15.29;52.91
62592;BME280;48659;41.622;2.276;2023-11-21T04:12:15;99438.19;;;15.64;52.04
62592;BME280;48659;41.622;2.276;2023-11-21T04:14:42;99447.15;;;15.67;54.27
62592;BME280;48659;41.622;2.276;2023-11-21T04:17:09;99440.79;;;16.36;52.78
62592;BME280;48659;41.622;2.276;2023-11-21T04:19:40;99449.91;;;14.90;54.76
62592;BME280;48659;41.622;2.276;2023-11-21T04:22:08;99450.83;;;14.47;53.74
62592;BME280;48659;41.622;2.276;2023-11-21T04:24:36;99453.71;;;13.00;58.96
62592;BME280;48659;41.622;2.276;2023-11-21T04:27:03;99449.20;;;14.94;56.63
62592;BME280;48659;41.622;2.276;2023-11-21T04:29:31;99452.42;;;15.17;54.60
62592;BME280;48659;41.622;2.276;2023-11-21T04:31:59;99456.84;;;14.63;54.58
62592;BME280;48659;41.622;2.276;2023-11-21T04:34:27;99461.78;;;14.01;56.36
62592;BME280;48659;41.622;2.276;2023-11-21T04:36:54;99471.32;;;15.18;53.76
62592;BME280;48659;41.622;2.276;2023-11-21T04:39:21;99474.56;;;14.25;55.44
62592;BME280;48659;41.622;2.276;2023-11-21T04:41:48;99469.59;;;15.42;54.62
62592;BME280;48659;41.622;2.276;2023-11-21T04:44:16;99468.88;;;13.76;58.37
62592;BME280;48659;41.622;2.276;2023-11-21T04:46:44;99470.48;;;12.49;58.71
62592;BME280;48659;41.622;2.276;2023-11-21T04:49:11;99465.11;;;12.70;56.96
62592;BME280;48659;41.622;2.276;2023-11-21T04:51:38;99465.86;;;14.69;53.97
62592;BME280;48659;41.622;2.276;2023-11-21T04:54:06;99472.60;;;15.38;52.60
62592;BME280;48659;41.622;2.276;2023-11-21T04:56:34;99475.72;;;15.10;51.95
62592;BME280;48659;41.622;2.276;2023-11-21T04:59:03;99477.16;;;15.37;50.41
62592;BME280;48659;41.622;2.276;2023-11-21T05:01:30;99479.65;;;15.28;49.29
62592;BME280;48659;41.622;2.276;2023-11-21T05:03:58;99479.53;;;14.88;50.47
62592;BME280;48659;41.622;2.276;2023-11-21T05:06:26;99482.30;;;14.60;51.77
62592;BME280;48659;41.622;2.276;2023-11-21T05:08:53;99483.65;;;13.06;58.71
62592;BME280;48659;41.622;2.276;2023-11-21T05:11:25;99495.65;;;10.44;70.06
62592;BME280;48659;41.622;2.276;2023-11-21T05:13:53;99495.14;;;10.04;70.10
62592;BME280;48659;41.622;2.276;2023-11-21T05:16:20;99486.70;;;11.37;66.54
62592;BME280;48659;41.622;2.276;2023-11-21T05:18:48;99487.29;;;10.97;66.95
62592;BME280;48659;41.622;2.276;2023-11-21T05:21:16;99472.37;;;9.75;70.08
62592;BME280;48659;41.622;2.276;2023-11-21T05:23:44;99448.58;;;9.79;71.94
62592;BME280;48659;41.622;2.276;2023-11-21T05:26:12;99444.10;;;8.65;76.39
62592;BME280;48659;41.622;2.276;2023-11-21T05:28:41;99466.23;;;9.44;76.80
62592;BME280;48659;41.622;2.276;2023-11-21T05:31:08;99484.79;;;10.59;72.58
62592;BME280;48659;41.622;2.276;2023-11-21T05:33:36;99499.50;;;10.11;72.28
62592;BME280;48659;41.622;2.276;2023-11-21T05:36:04;99505.80;;;9.48;71.96
62592;BME280;48659;41.622;2.276;2023-11-21T05:38:40;99504.66;;;11.62;70.42
62592;BME280;48659;41.622;2.276;2023-11-21T05:41:08;99499.95;;;11.34;71.17
62592;BME280;48659;41.622;2.276;2023-11-21T05:43:40;99499.83;;;10.28;71.29
62592;BME280;48659;41.622;2.276;2023-11-21T05:46:08;99505.62;;;11.50;69.56
62592;BME280;48659;41.622;2.276;2023-11-21T05:48:36;99507.04;;;11.31;67.13
62592;BME280;48659;41.622;2.276;2023-11-21T05:51:04;99503.19;;;13.03;63.00
62592;BME280;48659;41.622;2.276;2023-11-21T05:53:31;99509.49;;;12.88;64.88
62592;BME280;48659;41.622;2.276;2023-11-21T05:55:59;99517.24;;;11.74;64.41
62592;BME280;48659;41.622;2.276;2023-11-21T05:58:27;99527.85;;;11.55;66.56
62592;BME280;48659;41.622;2.276;2023-11-21T06:00:55;99527.56;;;12.64;64.93
62592;BME280;48659;41.622;2.276;2023-11-21T06:03:23;99541.20;;;12.01;68.36
62592;BME280;48659;41.622;2.276;2023-11-21T06:05:50;99537.03;;;11.99;66.08
62592;BME280;48659;41.622;2.276;2023-11-21T06:08:17;99542.40;;;10.77;71.12
62592;BME280;48659;41.622;2.276;2023-11-21T06:10:45;99541.50;;;10.93;72.75
62592;BME280;48659;41.622;2.276;2023-11-21T06:13:12;99537.81;;;12.14;65.67
62592;BME280;48659;41.622;2.276;2023-11-21T06:15:42;99542.81;;;13.74;61.11
62592;BME280;48659;41.622;2.276;2023-11-21T06:18:09;99541.84;;;13.60;59.26
62592;BME280;48659;41.622;2.276;2023-11-21T06:20:41;99552.26;;;12.95;62.27
62592;BME280;48659;41.622;2.276;2023-11-21T06:23:09;99555.47;;;13.04;62.23
62592;BME280;48659;41.622;2.276;2023-11-21T06:25:41;99553.10;;;14.59;58.05
62592;BME280;48659;41.622;2.276;2023-11-21T06:28:08;99566.48;;;10.69;65.62
62592;BME280;48659;41.622;2.276;2023-11-21T06:30:41;99569.98;;;12.34;63.46
62592;BME280;48659;41.622;2.276;2023-11-21T06:33:13;99575.26;;;12.47;66.23
62592;BME280;48659;41.622;2.276;2023-11-21T06:35:41;99572.33;;;13.89;59.98
62592;BME280;48659;41.622;2.276;2023-11-21T06:38:08;99569.98;;;15.03;58.42
62592;BME280;48659;41.622;2.276;2023-11-21T06:40:36;99575.26;;;14.24;58.48
62592;BME280;48659;41.622;2.276;2023-11-21T06:43:04;99581.82;;;15.23;57.33
62592;BME280;48659;41.622;2.276;2023-11-21T06:45:41;99585.66;;;15.21;57.52
62592;BME280;48659;41.622;2.276;2023-11-21T06:48:08;99596.22;;;13.43;60.77
62592;BME280;48659;41.622;2.276;2023-11-21T06:50:42;99607.44;;;12.68;61.40
62592;BME280;48659;41.622;2.276;2023-11-21T06:53:09;99610.41;;;12.64;61.67
62592;BME280;48659;41.622;2.276;2023-11-21T06:55:37;99607.02;;;14.76;57.68
62592;BME280;48659;41.622;2.276;2023-11-21T06:58:04;99609.73;;;15.40;57.38
62592;BME280;48659;41.622;2.276;2023-11-21T07:00:40;99614.58;;;15.10;57.95
62592;BME280;48659;41.622;2.276;2023-11-21T07:03:08;99619.48;;;15.10;57.02
62592;BME280;48659;41.622;2.276;2023-11-21T07:05:36;99616.72;;;14.77;56.36
62592;BME280;48659;41.622;2.276;2023-11-21T07:08:03;99622.03;;;15.23;56.62
62592;BME280;48659;41.622;2.276;2023-11-21T07:10:31;99624.64;;;15.33;55.59
62592;BME280;48659;41.622;2.276;2023-11-21T07:13:08;99629.43;;;15.36;55.20
62592;BME280;48659;41.622;2.276;2023-11-21T07:15:36;99630.64;;;14.66;54.81
62592;BME280;48659;41.622;2.276;2023-11-21T07:18:04;99633.42;;;15.27;55.30
62592;BME280;48659;41.622;2.276;2023-11-21T07:20:33;99636.92;;;15.59;55.61
62592;BME280;48659;41.622;2.276;2023-11-21T07:23:00;99639.11;;;14.42;56.85
62592;BME280;48659;41.622;2.276;2023-11-21T07:25:28;99641.31;;;13.37;57.81
62592;BME280;48659;41.622;2.276;2023-11-21T07:27:56;99639.38;;;14.44;55.06
62592;BME280;48659;41.622;2.276;2023-11-21T07:30:23;99644.88;;;15.18;55.07
62592;BME280;48659;41.622;2.276;2023-11-21T07:32:51;99644.63;;;15.09;56.18
62592;BME280;48659;41.622;2.276;2023-11-21T07:35:19;99630.18;;;15.58;55.84
62592;BME280;48659;41.622;2.276;2023-11-21T07:37:46;99630.62;;;14.86;55.29
62592;BME280;48659;41.622;2.276;2023-11-21T07:40:14;99644.24;;;15.71;54.82
62592;BME280;48659;41.622;2.276;2023-11-21T07:42:41;99647.62;;;15.16;56.07
62592;BME280;48659;41.622;2.276;2023-11-21T07:45:09;99650.37;;;14.24;55.79
62592;BME280;48659;41.622;2.276;2023-11-21T07:47:37;99646.66;;;15.48;54.91
62592;BME280;48659;41.622;2.276;2023-11-21T07:50:06;99647.31;;;14.64;55.03
62592;BME280;48659;41.622;2.276;2023-11-21T07:52:35;99657.01;;;14.97;55.48
62592;BME280;48659;41.622;2.276;2023-11-21T07:55:03;99662.47;;;14.81;55.08
62592;BME280;48659;41.622;2.276;2023-11-21T07:57:31;99656.01;;;15.90;55.06
62592;BME280;48659;41.622;2.276;2023-11-21T07:59:59;99658.27;;;14.22;55.11
62592;BME280;48659;41.622;2.276;2023-11-21T08:02:26;99660.56;;;15.86;53.79
62592;BME280;48659;41.622;2.276;2023-11-21T08:04:53;99661.41;;;16.01;52.58
62592;BME280;48659;41.622;2.276;2023-11-21T08:07:21;99658.43;;;15.02;53.35
62592;BME280;48659;41.622;2.276;2023-11-21T08:09:49;99660.70;;;15.65;52.24
62592;BME280;48659;41.622;2.276;2023-11-21T08:12:16;99663.90;;;17.04;51.37
62592;BME280;48659;41.622;2.276;2023-11-21T08:14:44;99664.11;;;15.49;52.43
62592;BME280;48659;41.622;2.276;2023-11-21T08:17:12;99664.52;;;14.40;54.37
62592;BME280;48659;41.622;2.276;2023-11-21T08:19:41;99664.84;;;15.66;52.59
62592;BME280;48659;41.622;2.276;2023-11-21T08:22:08;99665.27;;;14.78;52.89
62592;BME280;48659;41.622;2.276;2023-11-21T08:24:36;99671.20;;;15.31;54.81
62592;BME280;48659;41.622;2.276;2023-11-21T08:27:04;99679.70;;;15.09;55.94
62592;BME280;48659;41.622;2.276;2023-11-21T08:29:31;99677.51;;;15.69;56.16
62592;BME280;48659;41.622;2.276;2023-11-21T08:31:59;99680.01;;;15.86;55.04
62592;BME280;48659;41.622;2.276;2023-11-21T08:34:26;99691.13;;;13.60;60.97
62592;BME280;48659;41.622;2.276;2023-11-21T08:36:54;99688.57;;;10.44;63.67
62592;BME280;48659;41.622;2.276;2023-11-21T08:39:23;99687.60;;;10.69;63.66
62592;BME280;48659;41.622;2.276;2023-11-21T08:41:51;99684.11;;;11.55;59.06
62592;BME280;48659;41.622;2.276;2023-11-21T08:44:19;99672.99;;;12.26;56.98
62592;BME280;48659;41.622;2.276;2023-11-21T08:46:46;99677.17;;;11.52;60.63
62592;BME280;48659;41.622;2.276;2023-11-21T08:49:14;99681.92;;;10.99;61.70
62592;BME280;48659;41.622;2.276;2023-11-21T08:51:43;99679.40;;;12.04;59.61
62592;BME280;48659;41.622;2.276;2023-11-21T08:54:11;99677.95;;;14.36;55.86
62592;BME280;48659;41.622;2.276;2023-11-21T08:56:39;99681.89;;;13.87;55.31
62592;BME280;48659;41.622;2.276;2023-11-21T08:59:07;99693.26;;;11.58;60.94
62592;BME280;48659;41.622;2.276;2023-11-21T09:01:34;99679.81;;;14.36;57.21
62592;BME280;48659;41.622;2.276;2023-11-21T09:04:02;99675.85;;;12.43;58.77
62592;BME280;48659;41.622;2.276;2023-11-21T09:06:30;99677.19;;;14.95;55.58
62592;BME280;48659;41.622;2.276;2023-11-21T09:08:58;99681.40;;;13.63;57.37
62592;BME280;48659;41.622;2.276;2023-11-21T09:11:25;99687.60;;;13.55;58.82
62592;BME280;48659;41.622;2.276;2023-11-21T09:13:53;99696.85;;;12.27;58.52
62592;BME280;48659;41.622;2.276;2023-11-21T09:16:20;99692.89;;;14.08;58.17
62592;BME280;48659;41.622;2.276;2023-11-21T09:18:47;99691.32;;;13.53;55.57
62592;BME280;48659;41.622;2.276;2023-11-21T09:21:15;99699.52;;;13.35;56.28
62592;BME280;48659;41.622;2.276;2023-11-21T09:23:44;99699.69;;;14.76;54.35
62592;BME280;48659;41.622;2.276;2023-11-21T09:26:13;99699.23;;;13.40;54.23
62592;BME280;48659;41.622;2.276;2023-11-21T09:28:41;99696.06;;;14.39;52.93
62592;BME280;48659;41.622;2.276;2023-11-21T09:31:09;99692.82;;;14.29;53.78
62592;BME280;48659;41.622;2.276;2023-11-21T09:33:43;99685.86;;;14.27;52.86
62592;BME280;48659;41.622;2.276;2023-11-21T09:36:12;99677.43;;;13.96;54.08
62592;BME280;48659;41.622;2.276;2023-11-21T09:38:40;99673.38;;;14.03;53.80
62592;BME280;48659;41.622;2.276;2023-11-21T09:41:15;99674.32;;;14.22;53.44
62592;BME280;48659;41.622;2.276;2023-11-21T09:43:46;99676.31;;;13.58;51.83
62592;BME280;48659;41.622;2.276;2023-11-21T09:46:14;99686.32;;;13.30;53.67
62592;BME280;48659;41.622;2.276;2023-11-21T09:48:43;99680.94;;;11.73;52.87
62592;BME280;48659;41.622;2.276;2023-11-21T09:51:12;99666.14;;;13.47;51.11
62592;BME280;48659;41.622;2.276;2023-11-21T09:53:43;99659.39;;;12.62;50.64
62592;BME280;48659;41.622;2.276;2023-11-21T09:56:12;99665.15;;;12.48;49.50
62592;BME280;48659;41.622;2.276;2023-11-21T09:58:42;99674.49;;;11.85;51.93
62592;BME280;48659;41.622;2.276;2023-11-21T10:01:11;99666.10;;;14.20;47.88
62592;BME280;48659;41.622;2.276;2023-11-21T10:03:41;99665.47;;;14.51;45.97
62592;BME280;48659;41.622;2.276;2023-11-21T10:06:10;99663.43;;;15.70;45.09
62592;BME280;48659;41.622;2.276;2023-11-21T10:08:41;99667.34;;;13.64;45.32
62592;BME280;48659;41.622;2.276;2023-11-21T10:11:11;99667.04;;;15.04;45.54
62592;BME280;48659;41.622;2.276;2023-11-21T10:13:40;99669.83;;;14.76;46.54
62592;BME280;48659;41.622;2.276;2023-11-21T10:16:10;99671.32;;;14.30;45.42
62592;BME280;48659;41.622;2.276;2023-11-21T10:18:41;99673.67;;;14.73;44.82
62592;BME280;48659;41.622;2.276;2023-11-21T10:21:09;99673.94;;;14.57;43.45
62592;BME280;48659;41.622;2.276;2023-11-21T10:23:41;99675.15;;;14.87;42.91
62592;BME280;48659;41.622;2.276;2023-11-21T10:26:13;99670.64;;;16.49;41.55
62592;BME280;48659;41.622;2.276;2023-11-21T10:28:41;99664.09;;;16.15;40.97
62592;BME280;48659;41.622;2.276;2023-11-21T10:31:13;99658.08;;;16.45;40.46
62592;BME280;48659;41.622;2.276;2023-11-21T10:33:41;99649.38;;;15.59;40.91
62592;BME280;48659;41.622;2.276;2023-11-21T10:36:10;99652.13;;;15.13;40.37
62592;BME280;48659;41.622;2.276;2023-11-21T10:38:42;99641.70;;;14.45;41.45
62592;BME280;48659;41.622;2.276;2023-11-21T10:41:11;99642.72;;;16.38;40.03
62592;BME280;48659;41.622;2.276;2023-11-21T10:43:43;99636.22;;;15.74;40.62
62592;BME280;48659;41.622;2.276;2023-11-21T10:46:11;99635.55;;;14.62;40.46
62592;BME280;48659;41.622;2.276;2023-11-21T10:48:42;99638.71;;;15.50;39.66
62592;BME280;48659;41.622;2.276;2023-11-21T10:51:10;99642.03;;;14.99;39.57
62592;BME280;48659;41.622;2.276;2023-11-21T10:53:40;99644.05;;;16.38;37.87
62592;BME280;48659;41.622;2.276;2023-11-21T10:56:09;99641.39;;;16.05;39.21
62592;BME280;48659;41.622;2.276;2023-11-21T10:58:52;99635.87;;;14.30;40.57
62592;BME280;48659;41.622;2.276;2023-11-21T11:01:20;99627.63;;;15.67;38.42
62592;BME280;48659;41.622;2.276;2023-11-21T11:03:52;99619.42;;;16.10;37.96
62592;BME280;48659;41.622;2.276;2023-11-21T11:06:21;99617.65;;;15.25;38.26
62592;BME280;48659;41.622;2.276;2023-11-21T11:08:49;99612.23;;;15.12;38.12
62592;BME280;48659;41.622;2.276;2023-11-21T11:11:17;99607.27;;;14.80;39.62
62592;BME280;48659;41.622;2.276;2023-11-21T11:13:48;99601.27;;;17.15;36.46
62592;BME280;48659;41.622;2.276;2023-11-21T11:16:16;99605.92;;;16.60;37.49
62592;BME280;48659;41.622;2.276;2023-11-21T11:18:49;99597.55;;;17.31;35.97
62592;BME280;48659;41.622;2.276;2023-11-21T11:21:54;99594.06;;;18.07;35.32
62592;BME280;48659;41.622;2.276;2023-11-21T11:24:41;99585.05;;;18.00;34.81
62592;BME280;48659;41.622;2.276;2023-11-21T11:27:19;99576.47;;;17.26;34.51
62592;BME280;48659;41.622;2.276;2023-11-21T11:29:59;99576.01;;;17.22;34.42
62592;BME280;48659;41.622;2.276;2023-11-21T11:32:50;99575.57;;;16.81;36.33
62592;BME280;48659;41.622;2.276;2023-11-21T11:35:24;99571.30;;;17.26;36.71
62592;BME280;48659;41.622;2.276;2023-11-21T11:37:54;99565.56;;;17.09;34.85
62592;BME280;48659;41.622;2.276;2023-11-21T11:40:22;99566.69;;;17.30;34.37
62592;BME280;48659;41.622;2.276;2023-11-21T11:43:01;99562.84;;;18.93;34.03
62592;BME280;48659;41.622;2.276;2023-11-21T11:45:33;99562.83;;;18.09;33.65
62592;BME280;48659;41.622;2.276;2023-11-21T11:48:01;99569.06;;;17.48;33.94
62592;BME280;48659;41.622;2.276;2023-11-21T11:50:29;99570.03;;;16.07;35.53
62592;BME280;48659;41.622;2.276;2023-11-21T11:53:12;99558.58;;;16.67;35.21
62592;BME280;48659;41.622;2.276;2023-11-21T11:55:47;99546.36;;;17.89;33.82
62592;BME280;48659;41.622;2.276;2023-11-21T11:58:37;99545.74;;;16.13;35.78
62592;BME280;48659;41.622;2.276;2023-11-21T12:01:07;99541.22;;;15.90;35.72
62592;BME280;48659;41.622;2.276;2023-11-21T12:03:34;99536.44;;;16.90;34.34
62592;BME280;48659;41.622;2.276;2023-11-21T12:06:01;99533.23;;;17.04;33.77
62592;BME280;48659;41.622;2.276;2023-11-21T12:08:29;99532.94;;;18.36;33.10
62592;BME280;48659;41.622;2.276;2023-11-21T12:10:58;99536.18;;;13.88;37.66
62592;BME280;48659;41.622;2.276;2023-11-21T12:13:28;99523.49;;;17.23;34.72
62592;BME280;48659;41.622;2.276;2023-11-21T12:15:55;99518.21;;;17.15;33.21
62592;BME280;48659;41.622;2.276;2023-11-21T12:18:23;99511.05;;;18.58;32.69
62592;BME280;48659;41.622;2.276;2023-11-21T12:20:51;99511.01;;;18.13;32.75
62592;BME280;48659;41.622;2.276;2023-11-21T12:23:19;99502.49;;;17.68;32.04
62592;BME280;48659;41.622;2.276;2023-11-21T12:25:49;99501.11;;;18.25;31.80
62592;BME280;48659;41.622;2.276;2023-11-21T12:28:16;99502.60;;;17.19;34.05
62592;BME280;48659;41.622;2.276;2023-11-21T12:30:49;99499.70;;;17.61;32.87
62592;BME280;48659;41.622;2.276;2023-11-21T12:33:16;99493.54;;;18.73;31.85
62592;BME280;48659;41.622;2.276;2023-11-21T12:35:47;99486.67;;;19.32;31.01
62592;BME280;48659;41.622;2.276;2023-11-21T12:38:16;99486.94;;;17.30;32.48
62592;BME280;48659;41.622;2.276;2023-11-21T12:40:48;99492.85;;;15.78;35.03
62592;BME280;48659;41.622;2.276;2023-11-21T12:43:17;99483.57;;;17.71;32.96
62592;BME280;48659;41.622;2.276;2023-11-21T12:45:48;99474.92;;;17.78;32.37
62592;BME280;48659;41.622;2.276;2023-11-21T12:48:15;99475.11;;;17.96;32.77
62592;BME280;48659;41.622;2.276;2023-11-21T12:50:43;99471.95;;;17.47;32.93
62592;BME280;48659;41.622;2.276;2023-11-21T12:53:12;99467.07;;;17.77;32.78
62592;BME280;48659;41.622;2.276;2023-11-21T12:55:40;99467.64;;;18.48;31.92
62592;BME280;48659;41.622;2.276;2023-11-21T12:58:09;99469.30;;;17.06;31.98
62592;BME280;48659;41.622;2.276;2023-11-21T13:00:39;99470.27;;;17.39;31.94
62592;BME280;48659;41.622;2.276;2023-11-21T13:03:08;99468.92;;;18.91;30.29
62592;BME280;48659;41.622;2.276;2023-11-21T13:05:37;99454.53;;;18.97;30.61
62592;BME280;48659;41.622;2.276;2023-11-21T13:08:07;99448.40;;;18.68;30.17
62592;BME280;48659;41.622;2.276;2023-11-21T13:10:37;99464.04;;;15.82;33.35